This is the latest recevied weather packets stored in our database for station/object OE5RBO. If no packets are shown the sender has not sent any weather packets the latest 10 day(s).
| Time | Temp. | Humidity | Pressure | Rain* | Wind** | Luminosity | Snow |
|---|---|---|---|---|---|---|---|
| 1787823522 | 27.22° C | 66% | 1015.7 hPa | 0 mm | - | - | - |
| 1787822922 | 27.22° C | 64% | 1015.6 hPa | 0 mm | - | - | - |
| 1787822321 | 27.78° C | 62% | 1015.6 hPa | 0 mm | - | - | - |
| 1787821721 | 27.78° C | 63% | 1015.8 hPa | 0 mm | - | - | - |
| 1787821121 | 28.33° C | 64% | 1015.7 hPa | 0 mm | - | - | - |
| 1787820520 | 27.78° C | 67% | 1015.7 hPa | 0 mm | - | - | - |
| 1787819320 | 26.11° C | 71% | 1015.9 hPa | 0 mm | - | - | - |
| 1787818119 | 25.56° C | 75% | 1015.8 hPa | 0 mm | - | - | - |
| 1787817519 | 25.56° C | 72% | 1015.8 hPa | 0 mm | - | - | - |
| 1787816318 | 25° C | 74% | 1015.8 hPa | 0 mm | - | - | - |
| 1787815718 | 25° C | 76% | 1015.8 hPa | 0 mm | - | - | - |
| 1787815117 | 24.44° C | 76% | 1015.8 hPa | 0 mm | - | - | - |
| 1787814517 | 24.44° C | 76% | 1015.7 hPa | 0 mm | - | - | - |
| 1787813917 | 23.89° C | 79% | 1015.9 hPa | 0 mm | - | - | - |
| 1787813316 | 22.78° C | 82% | 1016.1 hPa | 0 mm | - | - | - |
| 1787812716 | 21.11° C | 88% | 1016.1 hPa | 0 mm | - | - | - |
| 1787812115 | 19.44° C | 93% | 1016.1 hPa | 0 mm | - | - | - |
| 1787811515 | 18.89° C | 93% | 1016.1 hPa | 0 mm | - | - | - |
| 1787810914 | 18.89° C | 95% | 1016.1 hPa | 0 mm | - | - | - |
| 1787810314 | 18.33° C | 96% | 1016.2 hPa | 0 mm | - | - | - |
| 1787809114 | 16.67° C | 98% | 1016.1 hPa | 0 mm | - | - | - |
| 1787808513 | 16.11° C | 98% | 1016.4 hPa | 0 mm | - | - | - |
| 1787807913 | 15.56° C | 99% | 1016.4 hPa | 0 mm | - | - | - |
| 1787807312 | 15.56° C | 99% | 1016.1 hPa | 0 mm | - | - | - |
| 1787806712 | 15.56° C | 99% | 1016.2 hPa | 0 mm | - | - | - |
* Rain since midnight (hover to see other rain measurements)
** Current wind speed in m/s (hover to see current wind gust speed)